Time;durP1;ratioP1;P1;durP2;ratioP2;P2;SDS_P1;SDS_P2;PMS_P1;PMS_P2;Temp;Humidity;BMP_temperature;BMP_pressure;BME280_temperature;BME280_humidity;BME280_pressure;Samples;Min_cycle;Max_cycle;Signal;HPM_P1;HPM_P2
2022/05/08 00:03:03;;;;;;;11.23;10.03;;;;;;;11.95;89.64;98212.88;6241732;28;20238;-68
2022/05/08 00:06:10;;;;;;;10.07;9.07;;;;;;;11.94;89.53;98200.59;6238556;28;20658;-68
2022/05/08 00:09:14;;;;;;;10.77;9.73;;;;;;;11.94;89.73;98212.97;6256756;28;20260;-68
2022/05/08 00:12:17;;;;;;;10.07;9.13;;;;;;;11.91;89.44;98216.69;6256333;28;20236;-68
2022/05/08 00:15:19;;;;;;;12.37;11.07;;;;;;;11.91;89.53;98208.75;6252198;28;20234;-67
2022/05/08 00:18:23;;;;;;;9.67;8.77;;;;;;;11.93;89.90;98206.84;6229320;28;20626;-67
2022/05/08 00:21:25;;;;;;;13.10;11.67;;;;;;;11.92;89.54;98199.88;6231783;28;21026;-67
2022/05/08 00:24:28;;;;;;;10.50;9.50;;;;;;;11.93;89.76;98206.84;6256135;28;20235;-67
2022/05/08 00:27:30;;;;;;;10.60;9.60;;;;;;;11.88;90.01;98197.59;6238384;28;20447;-67
2022/05/08 00:30:33;;;;;;;10.87;9.77;;;;;;;11.88;89.52;98197.59;6256726;28;20580;-67
2022/05/08 00:33:35;;;;;;;9.47;8.67;;;;;;;11.86;89.84;98197.72;6255627;28;20242;-67
2022/05/08 00:36:36;;;;;;;11.03;9.80;;;;;;;11.85;89.81;98200.47;6256214;28;20368;-67
2022/05/08 00:39:38;;;;;;;11.87;10.63;;;;;;;11.83;89.67;98200.56;6255120;28;20253;-68
2022/05/08 00:42:42;;;;;;;10.33;9.37;;;;;;;11.81;89.54;98197.22;6255727;28;20234;-68
2022/05/08 00:45:44;;;;;;;9.03;8.20;;;;;;;11.83;89.91;98197.94;6255661;28;20242;-68
2022/05/08 00:48:46;;;;;;;10.40;9.50;;;;;;;11.86;89.49;98194.22;6255605;28;20233;-68
2022/05/08 00:51:49;;;;;;;9.73;8.90;;;;;;;11.87;89.86;98195.91;6238166;28;20237;-67
2022/05/08 00:54:51;;;;;;;8.77;7.97;;;;;;;11.82;89.88;98186.50;6247526;28;20238;-68
2022/05/08 00:57:53;;;;;;;13.60;9.93;;;;;;;11.81;89.69;98192.75;6251949;28;20329;-67
2022/05/08 02:04:45;;;;;;;13.70;12.30;;;;;;;11.61;90.63;98179.34;6231468;28;20255;-68
2022/05/08 02:07:49;;;;;;;11.90;10.70;;;;;;;11.61;90.66;98174.91;6231944;28;20230;-68
2022/05/08 02:10:51;;;;;;;13.07;11.73;;;;;;;11.61;90.72;98172.25;6246188;28;20239;-68
2022/05/08 02:13:53;;;;;;;12.27;10.97;;;;;;;11.58;90.60;98174.31;6236343;28;20314;-68
2022/05/08 02:16:55;;;;;;;11.83;10.63;;;;;;;11.58;90.70;98167.19;6212296;28;20231;-68
2022/05/08 02:19:57;;;;;;;11.93;10.73;;;;;;;11.56;90.81;98178.88;6246461;28;20325;-67
2022/05/08 02:22:59;;;;;;;10.67;9.67;;;;;;;11.55;90.89;98175.38;6238668;28;20227;-68
2022/05/08 02:26:01;;;;;;;12.70;11.40;;;;;;;11.55;90.64;98172.75;6216942;28;20322;-67
2022/05/08 02:29:03;;;;;;;11.57;10.20;;;;;;;11.56;90.97;98177.06;6239343;28;20242;-68
2022/05/08 02:32:05;;;;;;;12.80;11.50;;;;;;;11.56;90.91;98177.06;6247764;28;20221;-68
2022/05/08 02:35:09;;;;;;;12.60;11.23;;;;;;;11.58;90.82;98188.34;6245386;28;20223;-67
2022/05/08 02:38:11;;;;;;;9.97;9.03;;;;;;;11.59;90.91;98182.09;6240824;28;20325;-68
2022/05/08 02:41:13;;;;;;;12.63;11.43;;;;;;;11.61;90.87;98182.00;6248717;28;20226;-67
2022/05/08 02:44:15;;;;;;;12.53;11.23;;;;;;;11.59;90.76;98183.91;6238819;28;20227;-68
2022/05/08 02:47:17;;;;;;;13.40;11.70;;;;;;;11.58;90.63;98187.53;6231579;28;20815;-67
2022/05/08 02:50:20;;;;;;;14.53;13.00;;;;;;;11.54;90.61;98186.06;6240214;28;20389;-67
2022/05/08 02:53:22;;;;;;;15.00;12.43;;;;;;;11.52;90.67;98187.97;6248617;28;22201;-68
2022/05/08 02:59:44;;;;;;;12.17;10.97;;;;;;;11.48;90.96;98187.38;6217504;28;20227;-68
2022/05/08 03:02:49;;;;;;;14.03;12.53;;;;;;;11.48;90.71;98190.00;6211162;28;20741;-68
2022/05/08 03:05:52;;;;;;;11.83;10.73;;;;;;;11.47;91.05;98191.00;6245656;28;20276;-68
2022/05/08 03:08:54;;;;;;;14.17;12.67;;;;;;;11.44;90.45;98191.22;6243795;28;20256;-68
2022/05/08 03:11:56;;;;;;;12.37;11.07;;;;;;;11.43;90.81;98193.00;6258531;28;20594;-68
2022/05/08 03:14:58;;;;;;;15.73;13.77;;;;;;;11.42;90.79;98196.63;6255847;28;20260;-67
2022/05/08 03:18:00;;;;;;;12.80;11.43;;;;;;;11.43;90.91;98193.00;6209875;28;20242;-68
2022/05/08 03:21:03;;;;;;;12.83;11.63;;;;;;;11.43;90.86;98202.75;6248267;28;20827;-68
2022/05/08 03:24:05;;;;;;;11.50;10.40;;;;;;;11.42;90.74;98199.25;6256660;28;20593;-68
2022/05/08 03:27:07;;;;;;;14.30;11.67;;;;;;;11.43;90.75;98202.75;6253975;28;20352;-69
2022/05/08 03:30:10;;;;;;;12.93;11.40;;;;;;;11.45;90.67;98206.13;6253226;28;20264;-69
2022/05/08 03:33:12;;;;;;;13.53;11.90;;;;;;;11.44;90.57;98202.63;6248648;28;20686;-68
2022/05/08 03:36:18;;;;;;;12.83;11.53;;;;;;;11.45;90.69;98200.84;6252340;28;20291;-67
2022/05/08 03:39:25;;;;;;;14.33;12.93;;;;;;;11.45;90.69;98203.47;6255993;28;20307;-67
2022/05/08 03:42:27;;;;;;;14.90;13.30;;;;;;;11.46;90.80;98205.16;6245573;28;20225;-68
2022/05/08 03:45:30;;;;;;;15.70;13.73;;;;;;;11.44;90.73;98204.44;6259443;28;20694;-68
2022/05/08 03:48:32;;;;;;;12.93;11.57;;;;;;;11.43;90.64;98205.38;6246389;28;20313;-68
2022/05/08 03:51:34;;;;;;;14.13;12.73;;;;;;;11.40;90.63;98210.88;6254466;28;20748;-68
2022/05/08 03:54:36;;;;;;;15.17;13.57;;;;;;;11.37;90.70;98208.50;6252532;28;20280;-68
2022/05/08 03:57:38;;;;;;;15.93;13.30;;;;;;;11.34;90.43;98212.22;6244576;28;20216;-67
2022/05/08 04:00:40;;;;;;;16.10;14.30;;;;;;;11.31;90.40;98212.44;6241640;28;20224;-68
2022/05/08 04:03:41;;;;;;;18.87;15.07;;;;;;;11.31;90.31;98215.06;6248266;28;20234;-68
2022/05/08 04:06:43;;;;;;;20.30;15.57;;;;;;;11.30;90.34;98213.38;6232669;28;20245;-68
2022/05/08 04:09:45;;;;;;;23.23;18.60;;;;;;;11.29;90.41;98214.34;6231838;28;20239;-68
2022/05/08 04:12:47;;;;;;;23.70;20.07;;;;;;;11.27;90.53;98215.44;6232469;28;20257;-68
2022/05/08 04:19:10;;;;;;;22.43;20.00;;;;;;;11.27;90.51;98224.19;6232081;28;20330;-68
2022/05/08 04:25:35;;;;;;;22.70;20.07;;;;;;;11.32;90.86;98214.13;6231096;28;20745;-68
2022/05/08 04:28:37;;;;;;;23.23;19.10;;;;;;;11.37;90.66;98222.56;6214872;28;20241;-68
2022/05/08 04:31:39;;;;;;;24.70;20.43;;;;;;;11.41;90.64;98228.44;6231117;28;20234;-68
2022/05/08 04:34:41;;;;;;;24.83;20.87;;;;;;;11.43;90.60;98222.09;6215245;28;20364;-68
2022/05/08 04:37:44;;;;;;;22.90;19.80;;;;;;;11.46;90.73;98223.66;6214131;28;20820;-68
2022/05/08 04:40:46;;;;;;;20.13;17.97;;;;;;;11.56;90.80;98223.81;6231569;28;20365;-68
2022/05/08 04:43:48;;;;;;;19.30;16.10;;;;;;;11.67;90.93;98227.34;6230855;28;20236;-68
2022/05/08 04:46:49;;;;;;;21.13;18.43;;;;;;;11.75;90.81;98227.63;6229988;28;20240;-68
2022/05/08 04:49:51;;;;;;;19.67;17.17;;;;;;;11.81;90.61;98228.94;6231340;28;20234;-68
2022/05/08 04:52:53;;;;;;;17.10;15.23;;;;;;;11.88;90.87;98234.63;6231155;28;20230;-68
2022/05/08 04:55:55;;;;;;;16.83;14.03;;;;;;;11.94;90.32;98234.97;6230721;28;20244;-68
2022/05/08 04:58:57;;;;;;;16.03;14.30;;;;;;;12.02;90.33;98237.03;6232233;28;20273;-68
2022/05/08 05:02:00;;;;;;;18.93;14.60;;;;;;;12.08;90.19;98231.25;6230418;28;20238;-68
2022/05/08 05:05:02;;;;;;;14.67;12.63;;;;;;;12.16;90.36;98240.31;6255002;28;20230;-68
2022/05/08 05:08:07;;;;;;;15.20;13.60;;;;;;;12.20;90.16;98239.09;6254066;28;20238;-68
2022/05/08 05:11:10;;;;;;;20.20;17.07;;;;;;;12.29;89.99;98245.47;6255222;28;20236;-68
2022/05/08 05:14:12;;;;;;;16.33;14.63;;;;;;;12.38;89.63;98250.03;6254607;28;20244;-68
2022/05/08 05:17:14;;;;;;;16.90;14.93;;;;;;;12.44;89.42;98254.03;6256234;28;20266;-68
2022/05/08 05:20:16;;;;;;;15.63;14.03;;;;;;;12.50;89.33;98262.31;6254646;28;20851;-68
2022/05/08 05:23:18;;;;;;;15.63;14.00;;;;;;;12.60;89.16;98253.63;6254392;28;20237;-68
2022/05/08 05:26:20;;;;;;;15.37;13.77;;;;;;;12.68;89.03;98265.31;6255324;28;20324;-68
2022/05/08 05:29:25;;;;;;;16.03;14.33;;;;;;;12.77;89.13;98261.94;6238850;28;20705;-68
2022/05/08 05:32:27;;;;;;;14.57;13.07;;;;;;;12.83;88.85;98265.91;6254581;28;20257;-68
2022/05/08 05:35:29;;;;;;;14.27;12.87;;;;;;;12.87;89.01;98262.91;6255153;28;20234;-67
2022/05/08 05:38:35;;;;;;;16.27;12.33;;;;;;;12.95;88.62;98264.94;6237135;28;20569;-68
2022/05/08 05:41:36;;;;;;;15.40;13.80;;;;;;;13.02;88.32;98268.75;6254622;28;20229;-68
2022/05/08 05:44:40;;;;;;;14.13;12.63;;;;;;;13.09;88.52;98271.75;6253851;28;20249;-68
2022/05/08 05:47:54;;;;;;;14.57;11.83;;;;;;;13.17;87.89;98275.50;6253569;28;20706;-68
2022/05/08 05:50:56;;;;;;;16.53;12.23;;;;;;;13.23;87.83;98268.84;6254038;28;20594;-68
2022/05/08 05:53:58;;;;;;;12.90;11.67;;;;;;;13.30;87.94;98275.31;6236228;28;20231;-68
2022/05/08 05:57:02;;;;;;;12.70;11.00;;;;;;;13.34;87.41;98268.81;6253832;28;20234;-68
2022/05/08 06:00:09;;;;;;;12.73;11.43;;;;;;;13.39;87.40;98279.03;6252321;28;20910;-68
2022/05/08 06:03:14;;;;;;;13.47;11.83;;;;;;;13.44;87.38;98276.84;6252264;28;20322;-68
2022/05/08 06:06:17;;;;;;;12.57;11.27;;;;;;;13.52;87.10;98279.72;6253037;28;20705;-67
2022/05/08 06:09:19;;;;;;;12.80;11.43;;;;;;;13.56;86.88;98278.50;6253125;28;20215;-68
2022/05/08 06:12:21;;;;;;;13.63;12.10;;;;;;;13.57;86.95;98283.69;6210906;28;20689;-69
2022/05/08 06:15:23;;;;;;;13.83;11.97;;;;;;;13.56;86.40;98287.31;6252966;28;20233;-67
2022/05/08 06:18:25;;;;;;;18.50;12.07;;;;;;;13.55;86.72;98282.13;6254507;28;20223;-67
2022/05/08 06:21:27;;;;;;;13.60;12.03;;;;;;;13.53;86.44;98276.09;6217808;28;20233;-69
2022/05/08 06:24:30;;;;;;;14.17;12.70;;;;;;;13.57;86.51;98288.16;6249756;28;20736;-68
2022/05/08 06:27:32;;;;;;;14.13;12.67;;;;;;;13.61;86.28;98289.56;6253693;28;20242;-70
2022/05/08 06:30:35;;;;;;;13.87;12.40;;;;;;;13.64;85.69;98286.66;6251971;28;20227;-66
2022/05/08 06:33:37;;;;;;;14.27;12.00;;;;;;;13.65;85.76;98294.50;6252379;28;20226;-70
2022/05/08 06:36:39;;;;;;;12.43;11.20;;;;;;;13.66;85.88;98300.66;6252130;28;20223;-70
2022/05/08 06:39:41;;;;;;;13.50;11.97;;;;;;;13.70;85.98;98298.56;6235809;28;20233;-70
2022/05/08 06:42:43;;;;;;;13.57;12.20;;;;;;;13.75;86.13;98302.53;6211489;28;20224;-71
2022/05/08 06:45:45;;;;;;;15.90;12.87;;;;;;;13.80;85.53;98310.09;6247364;28;20215;-72
2022/05/08 06:48:48;;;;;;;13.10;11.80;;;;;;;13.84;85.82;98304.41;6253505;28;20256;-76
2022/05/08 06:51:50;;;;;;;13.53;12.13;;;;;;;13.87;85.67;98305.97;6253068;28;20363;-74
2022/05/08 06:54:52;;;;;;;15.03;13.50;;;;;;;13.90;84.92;98309.19;6253168;28;20319;-74
2022/05/08 06:57:54;;;;;;;12.90;11.30;;;;;;;13.90;84.85;98309.19;6233506;28;20876;-64
2022/05/08 07:04:48;;;;;;;12.77;11.43;;;;;;;14.11;84.42;98305.69;6207395;28;20231;-73
2022/05/08 07:07:50;;;;;;;12.90;11.50;;;;;;;14.21;83.87;98302.13;6251962;28;20317;-69
2022/05/08 07:10:52;;;;;;;12.30;11.10;;;;;;;14.33;83.32;98316.19;6244204;28;20239;-70
2022/05/08 07:13:54;;;;;;;14.40;12.40;;;;;;;14.44;83.04;98305.53;6250774;28;20235;-69
2022/05/08 07:16:56;;;;;;;14.77;12.57;;;;;;;14.56;82.42;98304.47;6252535;28;20269;-70
2022/05/08 07:20:01;;;;;;;18.90;11.60;;;;;;;14.65;82.12;98308.16;6225726;28;20232;-68
2022/05/08 07:23:04;;;;;;;15.83;12.60;;;;;;;14.71;81.60;98310.25;6246725;28;20238;-67
2022/05/08 07:26:06;;;;;;;15.17;13.60;;;;;;;14.80;81.42;98309.44;6252723;28;20230;-68
2022/05/08 07:29:08;;;;;;;14.67;12.57;;;;;;;14.89;80.77;98307.81;6253055;28;20229;-64
2022/05/08 07:32:11;;;;;;;14.33;12.10;;;;;;;14.94;80.41;98313.56;6256806;28;20237;-68
2022/05/08 07:38:34;;;;;;;12.23;11.07;;;;;;;15.12;80.02;98314.59;6230963;28;20381;-68
2022/05/08 07:41:36;;;;;;;12.43;11.13;;;;;;;15.18;79.62;98319.34;6256230;28;20654;-68
2022/05/08 07:44:38;;;;;;;13.07;10.37;;;;;;;15.21;79.45;98321.75;6235653;28;20231;-69
2022/05/08 07:47:40;;;;;;;14.33;11.63;;;;;;;15.23;79.29;98324.28;6229344;28;20240;-70
2022/05/08 07:50:45;;;;;;;11.93;10.40;;;;;;;15.32;78.98;98329.63;6227913;28;20365;-71
2022/05/08 07:53:54;;;;;;;13.00;11.27;;;;;;;15.41;78.90;98330.59;6256214;28;20427;-68
2022/05/08 07:56:56;;;;;;;12.57;10.27;;;;;;;15.48;78.67;98329.06;6230385;28;20252;-66
2022/05/08 07:59:58;;;;;;;12.20;9.97;;;;;;;15.58;78.47;98332.63;6235951;28;20228;-68
2022/05/08 08:03:00;;;;;;;12.50;10.57;;;;;;;15.72;77.83;98332.22;6256151;28;20231;-69
2022/05/08 08:06:03;;;;;;;13.30;11.90;;;;;;;15.85;77.30;98339.94;6256926;28;20296;-69
2022/05/08 08:09:11;;;;;;;13.93;11.80;;;;;;;15.90;76.32;98339.50;6256116;28;20238;-70
2022/05/08 08:12:13;;;;;;;13.13;11.70;;;;;;;15.97;75.70;98343.31;6256260;28;20219;-69
2022/05/08 08:15:15;;;;;;;12.77;11.47;;;;;;;16.04;75.45;98344.41;6238471;28;20253;-69
2022/05/08 08:18:18;;;;;;;15.00;11.93;;;;;;;16.18;75.51;98350.13;6253555;28;20215;-69
2022/05/08 08:21:20;;;;;;;12.03;10.67;;;;;;;16.32;74.92;98345.38;6229048;28;20564;-69
2022/05/08 08:24:22;;;;;;;15.07;12.87;;;;;;;16.43;73.19;98355.84;6225200;28;20301;-69
2022/05/08 08:27:30;;;;;;;16.50;12.50;;;;;;;16.58;73.41;98351.75;5364752;28;10000775;-70
2022/05/08 08:30:32;;;;;;;11.20;9.43;;;;;;;16.66;73.47;98343.94;6256302;28;20227;-69
2022/05/08 08:33:38;;;;;;;10.17;8.17;;;;;;;16.87;73.49;98355.19;6260348;28;20634;-70
2022/05/08 08:36:39;;;;;;;13.90;10.40;;;;;;;17.07;71.89;98355.13;6256052;28;20314;-70
2022/05/08 08:39:42;;;;;;;12.50;11.00;;;;;;;17.20;69.42;98358.28;6237551;28;20231;-69
2022/05/08 08:42:44;;;;;;;12.50;11.30;;;;;;;17.34;69.03;98353.31;6253975;28;20222;-69
2022/05/08 08:49:21;;;;;;;9.80;8.80;;;;;;;17.39;67.83;98358.19;6237180;28;20687;-69
2022/05/08 08:52:26;;;;;;;13.10;10.63;;;;;;;17.59;66.57;98364.25;6237057;28;20231;-68
2022/05/08 08:55:28;;;;;;;15.77;11.70;;;;;;;17.65;64.65;98361.84;6238826;28;20231;-69
2022/05/08 08:58:30;;;;;;;13.97;11.60;;;;;;;17.84;64.50;98357.38;6252791;28;20258;-68
2022/05/08 09:01:49;;;;;;;12.63;9.47;;;;;;;17.96;64.33;98358.81;6255460;28;20241;-70
2022/05/08 09:04:51;;;;;;;14.30;11.00;;;;;;;18.15;62.37;98360.50;6254525;28;20238;-70
2022/05/08 09:07:54;;;;;;;11.70;10.47;;;;;;;18.15;61.62;98360.50;6254254;28;20605;-69
2022/05/08 09:10:58;;;;;;;10.50;9.40;;;;;;;18.27;61.85;98354.72;6254691;28;20231;-69
2022/05/08 09:14:00;;;;;;;13.17;9.97;;;;;;;18.34;60.57;98355.81;6255041;28;20280;-69
2022/05/08 09:17:04;;;;;;;11.57;10.20;;;;;;;18.39;59.82;98358.84;6255075;28;20769;-68
2022/05/08 09:20:07;;;;;;;12.03;9.37;;;;;;;18.52;59.28;98355.75;6254796;28;20622;-68
2022/05/08 09:23:17;;;;;;;11.13;8.50;;;;;;;18.72;60.04;98351.91;6255145;28;20322;-68
2022/05/08 09:26:25;;;;;;;18.07;10.27;;;;;;;18.73;58.87;98355.44;6255373;28;20245;-68
2022/05/08 09:29:27;;;;;;;9.80;8.90;;;;;;;18.75;57.73;98346.25;6256228;28;20220;-68
2022/05/08 09:32:50;;;;;;;7.87;7.13;;;;;;;19.10;57.75;98339.91;6255418;28;20894;-69
2022/05/08 09:35:53;;;;;;;13.03;10.97;;;;;;;19.07;56.43;98339.38;6255916;28;20235;-68
2022/05/08 09:39:02;;;;;;;9.70;8.47;;;;;;;18.78;56.63;98358.47;6239177;28;20227;-68
2022/05/08 09:42:04;;;;;;;9.27;8.10;;;;;;;19.03;57.54;98348.75;6253731;28;20230;-68
2022/05/08 09:45:07;;;;;;;10.03;9.03;;;;;;;19.06;57.13;98353.78;6254156;28;20211;-68
2022/05/08 09:48:18;;;;;;;7.63;6.93;;;;;;;19.29;56.51;98354.88;6253257;28;20207;-68
2022/05/08 09:51:23;;;;;;;11.83;10.03;;;;;;;18.86;55.22;98350.50;6244637;28;20237;-68
2022/05/08 09:54:26;;;;;;;10.97;9.80;;;;;;;18.78;55.77;98355.78;6253319;28;20594;-68
2022/05/08 09:57:28;;;;;;;10.60;9.50;;;;;;;18.84;56.02;98355.16;6234888;28;20598;-68
2022/05/08 10:00:30;;;;;;;9.50;8.60;;;;;;;19.01;55.67;98346.22;6252979;28;20225;-68
2022/05/08 10:03:33;;;;;;;9.07;7.07;;;;;;;19.34;56.97;98359.75;6254072;28;20338;-67
2022/05/08 10:06:38;;;;;;;8.67;7.80;;;;;;;19.32;57.56;98343.00;6254447;28;20272;-68
2022/05/08 10:16:42;;;;;;;10.70;9.00;;;;;;;19.17;55.90;98345.44;6254033;28;20246;-69
2022/05/08 10:19:45;;;;;;;8.63;7.73;;;;;;;19.29;55.50;98338.81;6211069;28;20232;-68
2022/05/08 10:22:48;;;;;;;9.90;9.00;;;;;;;19.40;56.86;98337.69;6245856;28;20781;-68
2022/05/08 10:26:18;;;;;;;8.13;7.33;;;;;;;19.24;57.04;98342.97;6253364;28;20306;-68
2022/05/08 10:29:20;;;;;;;7.43;6.47;;;;;;;19.40;58.89;98338.50;6244479;28;20308;-68
2022/05/08 10:32:32;;;;;;;8.93;7.93;;;;;;;19.10;57.58;98339.91;6253516;28;20365;-68
2022/05/08 10:35:36;;;;;;;7.10;6.40;;;;;;;19.07;59.19;98334.03;6256036;28;20750;-68
2022/05/08 10:38:38;;;;;;;14.70;9.83;;;;;;;18.98;58.83;98340.34;6252788;28;20223;-68
2022/05/08 10:41:43;;;;;;;12.30;9.60;;;;;;;18.72;58.51;98343.91;6252764;28;20727;-68
2022/05/08 10:44:48;;;;;;;8.57;7.77;;;;;;;18.72;58.93;98341.22;6252986;28;20281;-69
2022/05/08 10:48:04;;;;;;;10.87;8.03;;;;;;;18.89;59.85;98341.31;6251874;28;20223;-68
2022/05/08 10:51:06;;;;;;;12.40;8.87;;;;;;;18.92;58.10;98336.47;6235024;28;20702;-68
2022/05/08 10:54:11;;;;;;;8.93;7.50;;;;;;;18.93;57.05;98335.50;6235281;28;20583;-68
2022/05/08 10:57:13;;;;;;;6.40;5.80;;;;;;;19.06;59.11;98329.69;6252320;28;20729;-68
2022/05/08 11:00:23;;;;;;;7.53;6.83;;;;;;;19.21;59.77;98333.44;6252851;28;20215;-68
2022/05/08 11:03:25;;;;;;;7.67;5.70;;;;;;;19.37;60.05;98338.00;6252542;28;20593;-68
2022/05/08 11:06:27;;;;;;;6.67;6.00;;;;;;;19.54;60.34;98334.41;6252262;28;20227;-68
2022/05/08 11:09:37;;;;;;;7.73;6.93;;;;;;;19.68;59.17;98330.25;6252098;28;20219;-68
2022/05/08 11:12:53;;;;;;;8.60;7.77;;;;;;;19.71;59.46;98332.59;6235435;28;20223;-68
2022/05/08 11:15:55;;;;;;;10.70;8.17;;;;;;;19.69;57.89;98335.44;6245427;28;20263;-68
2022/05/08 11:18:58;;;;;;;9.40;8.50;;;;;;;19.70;56.59;98329.09;6211120;28;20238;-68
2022/05/08 11:22:07;;;;;;;7.80;7.00;;;;;;;19.84;56.46;98325.78;6250206;28;20231;-68
2022/05/08 11:25:13;;;;;;;8.27;7.00;;;;;;;20.12;57.01;98326.28;6252549;28;20594;-68
2022/05/08 11:28:17;;;;;;;6.73;5.83;;;;;;;20.37;57.88;98315.56;6252559;28;20261;-68
2022/05/08 11:31:24;;;;;;;9.17;7.27;;;;;;;20.38;56.90;98317.25;6252302;28;20238;-69
2022/05/08 11:38:03;;;;;;;8.73;7.27;;;;;;;20.96;54.91;98316.97;6252137;28;20231;-69
2022/05/08 11:41:08;;;;;;;10.00;6.40;;;;;;;21.19;55.21;98319.75;6234085;28;20240;-68
2022/05/08 11:44:12;;;;;;;9.70;6.93;;;;;;;21.24;54.81;98314.69;6252683;28;20310;-68
2022/05/08 11:47:14;;;;;;;9.10;8.17;;;;;;;21.05;53.43;98313.25;6251800;28;20223;-68
2022/05/08 11:50:18;;;;;;;8.53;7.70;;;;;;;20.47;53.04;98314.38;6234864;28;20365;-68
2022/05/08 11:53:22;;;;;;;10.23;7.00;;;;;;;20.44;55.66;98314.75;6252940;28;20278;-67
2022/05/08 11:56:35;;;;;;;7.73;6.93;;;;;;;20.49;55.15;98314.22;6251950;28;20231;-68
2022/05/08 11:59:37;;;;;;;6.80;6.13;;;;;;;20.36;54.83;98311.22;6252261;28;20706;-68
2022/05/08 12:02:46;;;;;;;9.63;6.53;;;;;;;20.63;55.99;98316.22;6251576;28;20277;-68
2022/05/08 12:05:49;;;;;;;7.37;6.33;;;;;;;20.74;54.96;98310.47;6252616;28;20238;-68
2022/05/08 12:08:51;;;;;;;6.23;5.63;;;;;;;20.90;57.35;98315.78;6251588;28;20251;-68
2022/05/08 12:11:53;;;;;;;6.07;5.30;;;;;;;21.13;57.77;98310.50;6252503;28;20781;-68
2022/05/08 12:15:16;;;;;;;8.27;7.23;;;;;;;21.10;54.76;98308.16;6251669;28;20229;-68
2022/05/08 12:18:18;;;;;;;6.80;6.20;;;;;;;20.94;53.91;98303.72;6237225;28;20211;-68
2022/05/08 12:21:29;;;;;;;7.30;5.37;;;;;;;21.47;54.34;98306.66;6256391;28;20218;-68
2022/05/08 12:24:31;;;;;;;6.97;6.27;;;;;;;22.04;53.85;98299.09;6256443;28;20302;-68
2022/05/08 12:27:34;;;;;;;6.70;5.63;;;;;;;22.23;48.60;98290.53;6256240;28;20578;-68
2022/05/08 12:30:36;;;;;;;7.63;6.13;;;;;;;22.67;46.71;98289.75;6256480;28;20697;-68
2022/05/08 12:33:38;;;;;;;5.60;5.03;;;;;;;22.96;46.60;98284.41;6257120;28;20226;-69
2022/05/08 12:36:41;;;;;;;5.57;5.07;;;;;;;23.59;45.36;98284.78;6254315;28;20238;-68
2022/05/08 12:39:43;;;;;;;5.60;5.00;;;;;;;23.94;44.87;98281.22;6237876;28;20633;-68
2022/05/08 12:42:45;;;;;;;6.40;5.77;;;;;;;23.82;45.18;98278.19;6255622;28;20243;-68
2022/05/08 12:45:49;;;;;;;7.00;5.00;;;;;;;23.48;44.35;98278.00;6255113;28;20333;-68
2022/05/08 12:48:51;;;;;;;6.30;5.70;;;;;;;23.40;43.88;98270.03;6256740;28;20215;-68
2022/05/08 12:51:53;;;;;;;5.27;4.77;;;;;;;23.54;44.02;98271.91;6254369;28;20237;-68
2022/05/08 12:54:55;;;;;;;7.27;4.90;;;;;;;23.74;43.10;98259.47;6255513;28;20749;-68
2022/05/08 13:01:17;;;;;;;6.00;4.70;;;;;;;24.54;41.83;98247.50;6255261;28;20339;-68
2022/05/08 13:04:19;;;;;;;6.20;4.77;;;;;;;25.18;41.48;98256.16;6255522;28;20246;-68
2022/05/08 13:07:21;;;;;;;5.47;4.63;;;;;;;24.94;40.57;98251.28;6255728;28;20576;-68
2022/05/08 13:10:23;;;;;;;6.00;5.40;;;;;;;25.06;39.59;98251.53;6255979;28;20251;-68
2022/05/08 13:13:31;;;;;;;5.93;5.33;;;;;;;25.09;39.45;98248.41;6238073;28;20235;-68
2022/05/08 13:16:34;;;;;;;8.27;5.87;;;;;;;25.06;40.48;98243.41;6255065;28;20242;-68
2022/05/08 13:19:36;;;;;;;8.20;5.50;;;;;;;24.68;39.52;98240.28;6254554;28;20243;-68
2022/05/08 13:22:41;;;;;;;5.80;5.20;;;;;;;24.59;40.68;98234.22;6254622;28;21026;-68
2022/05/08 13:25:43;;;;;;;7.00;5.03;;;;;;;24.74;39.57;98234.94;6255169;28;20223;-68
2022/05/08 13:28:45;;;;;;;5.10;4.63;;;;;;;24.10;40.04;98229.69;6237550;28;20722;-68
2022/05/08 13:31:47;;;;;;;5.47;4.57;;;;;;;23.22;41.89;98223.84;6254482;28;20238;-68
2022/05/08 13:34:49;;;;;;;6.47;4.90;;;;;;;22.89;42.19;98224.25;6255404;28;20237;-68
2022/05/08 13:37:51;;;;;;;4.30;3.90;;;;;;;23.01;43.92;98209.31;6246603;28;20318;-68
2022/05/08 13:40:59;;;;;;;5.53;4.77;;;;;;;23.42;46.04;98223.03;6255450;28;20705;-68
2022/05/08 13:44:02;;;;;;;6.27;4.20;;;;;;;24.83;44.02;98211.31;6254880;28;20226;-67
2022/05/08 13:47:06;;;;;;;6.17;4.30;;;;;;;24.54;42.52;98212.41;6254832;28;20227;-68
2022/05/08 13:50:09;;;;;;;5.40;4.57;;;;;;;24.67;42.61;98215.16;6255508;28;20317;-68
2022/05/08 13:53:11;;;;;;;7.50;5.10;;;;;;;25.79;39.89;98209.34;6254371;28;20259;-68
2022/05/08 13:56:13;;;;;;;5.57;5.03;;;;;;;26.23;37.94;98204.16;6254358;28;20728;-68
2022/05/08 13:59:15;;;;;;;5.37;4.87;;;;;;;25.38;39.90;98207.56;6254187;28;20233;-68
2022/05/08 14:02:17;;;;;;;9.17;5.87;;;;;;;23.62;42.25;98204.41;6253093;28;20730;-67
2022/05/08 14:05:23;;;;;;;6.90;5.07;;;;;;;22.54;44.97;98207.00;6253551;28;20609;-68
2022/05/08 14:08:25;;;;;;;7.43;5.00;;;;;;;22.26;48.32;98206.78;6236282;28;20223;-68
2022/05/08 14:11:27;;;;;;;5.93;5.37;;;;;;;22.22;50.18;98199.28;6254111;28;20641;-68
2022/05/08 14:14:31;;;;;;;5.10;4.67;;;;;;;22.41;51.23;98204.97;6233660;28;20763;-68
2022/05/08 14:17:35;;;;;;;7.20;5.13;;;;;;;22.86;50.24;98197.72;6253692;28;20651;-68
2022/05/08 14:20:38;;;;;;;5.70;4.77;;;;;;;23.28;49.46;98193.44;6254816;28;20231;-68
2022/05/08 14:23:40;;;;;;;5.23;4.70;;;;;;;24.89;45.56;98205.94;6252771;28;20606;-68
2022/05/08 14:26:42;;;;;;;7.67;5.00;;;;;;;26.52;39.91;98189.34;6253161;28;20218;-68
2022/05/08 14:29:44;;;;;;;5.23;4.73;;;;;;;29.64;34.74;98192.81;6253533;28;20218;-67
2022/05/08 14:36:08;;;;;;;5.50;5.00;;;;;;;32.26;28.41;98179.56;6253254;28;20235;-68
2022/05/08 14:39:10;;;;;;;5.13;4.63;;;;;;;30.04;29.76;98182.16;6234706;28;20337;-68
2022/05/08 14:42:12;;;;;;;4.37;3.83;;;;;;;28.45;34.63;98183.38;6253517;28;20670;-68
2022/05/08 14:45:14;;;;;;;8.13;4.83;;;;;;;30.66;31.07;98182.50;6253887;28;20226;-68
2022/05/08 14:48:17;;;;;;;8.15;4.50;;;;;;;32.02;27.47;98180.81;6253583;28;20219;-68
2022/05/08 14:51:19;;;;;;;5.10;4.60;;;;;;;33.14;27.40;98184.06;6251891;28;20223;-68
2022/05/08 14:54:22;;;;;;;5.32;4.05;;;;;;;32.47;27.03;98177.97;6253405;28;20231;-68
2022/05/08 14:57:24;;;;;;;6.28;3.75;;;;;;;30.22;30.02;98182.03;6254000;28;20231;-68
2022/05/08 15:00:26;;;;;;;4.15;3.75;;;;;;;30.39;29.28;98174.81;6252910;28;20219;-67
2022/05/08 15:03:28;;;;;;;3.75;3.42;;;;;;;31.48;28.33;98174.91;6253994;28;20246;-68
2022/05/08 15:06:30;;;;;;;4.63;3.25;;;;;;;32.18;27.31;98175.34;6252684;28;20225;-67
2022/05/08 15:09:32;;;;;;;4.40;3.97;;;;;;;31.04;27.90;98174.59;6253013;28;20305;-67
2022/05/08 15:12:34;;;;;;;4.50;3.95;;;;;;;31.23;27.84;98172.56;6252595;28;20246;-68
2022/05/08 15:15:36;;;;;;;5.15;4.13;;;;;;;31.94;25.56;98168.41;6252543;28;20223;-68
2022/05/08 15:18:50;;;;;;;5.57;3.45;;;;;;;32.08;25.44;98169.69;6252761;28;20737;-67
2022/05/08 15:21:53;;;;;;;5.05;3.40;;;;;;;32.67;24.25;98178.25;6244763;28;20711;-68
2022/05/08 15:24:55;;;;;;;4.40;3.28;;;;;;;31.67;25.46;98178.28;6252995;28;20285;-68
2022/05/08 15:27:57;;;;;;;4.05;3.35;;;;;;;30.41;27.48;98174.56;6253566;28;20953;-68
2022/05/08 15:30:59;;;;;;;3.33;3.00;;;;;;;29.14;29.22;98179.47;6253359;28;20227;-68
2022/05/08 15:34:01;;;;;;;3.17;2.88;;;;;;;27.28;31.77;98177.78;6253024;28;20370;-67
2022/05/08 15:37:05;;;;;;;3.90;3.38;;;;;;;28.23;30.32;98174.84;6251790;28;20333;-68
2022/05/08 15:40:08;;;;;;;5.80;3.42;;;;;;;27.22;32.34;98175.97;6234826;28;20223;-68
2022/05/08 15:43:11;;;;;;;4.30;3.55;;;;;;;26.24;35.58;98175.22;6251759;28;20234;-67
2022/05/08 15:46:13;;;;;;;3.70;3.40;;;;;;;26.80;34.08;98180.91;6253555;28;20372;-67
2022/05/08 15:49:15;;;;;;;6.23;3.70;;;;;;;28.41;34.64;98184.91;6252634;28;20620;-67
2022/05/08 15:52:17;;;;;;;3.13;2.92;;;;;;;29.53;32.04;98180.00;6256795;28;20369;-67
2022/05/08 15:55:20;;;;;;;3.78;3.40;;;;;;;28.96;31.12;98187.63;6257638;28;20317;-67